sensor_id;sensor_type;location;lat;lon;timestamp;P1;durP1;ratioP1;P2;durP2;ratioP2
64387;SDS011;50709;52.648;4.764;2023-04-10T00:00:04;20.40;;;13.20;;
64387;SDS011;50709;52.648;4.764;2023-04-10T00:02:31;21.67;;;13.88;;
64387;SDS011;50709;52.648;4.764;2023-04-10T00:04:57;21.20;;;13.60;;
64387;SDS011;50709;52.648;4.764;2023-04-10T00:07:23;21.63;;;12.93;;
64387;SDS011;50709;52.648;4.764;2023-04-10T00:09:48;22.90;;;13.10;;
64387;SDS011;50709;52.648;4.764;2023-04-10T00:12:14;23.77;;;13.20;;
64387;SDS011;50709;52.648;4.764;2023-04-10T00:14:41;21.42;;;13.02;;
64387;SDS011;50709;52.648;4.764;2023-04-10T00:17:06;20.75;;;13.23;;
64387;SDS011;50709;52.648;4.764;2023-04-10T00:19:32;21.60;;;12.27;;
64387;SDS011;50709;52.648;4.764;2023-04-10T00:21:58;21.10;;;12.60;;
64387;SDS011;50709;52.648;4.764;2023-04-10T00:24:24;21.45;;;12.35;;
64387;SDS011;50709;52.648;4.764;2023-04-10T00:26:51;24.02;;;13.50;;
64387;SDS011;50709;52.648;4.764;2023-04-10T00:29:17;22.25;;;13.65;;
64387;SDS011;50709;52.648;4.764;2023-04-10T00:31:42;19.38;;;12.68;;
64387;SDS011;50709;52.648;4.764;2023-04-10T00:34:08;20.08;;;12.88;;
64387;SDS011;50709;52.648;4.764;2023-04-10T00:36:34;19.92;;;12.25;;
64387;SDS011;50709;52.648;4.764;2023-04-10T00:38:59;20.92;;;12.80;;
64387;SDS011;50709;52.648;4.764;2023-04-10T00:41:25;21.02;;;12.35;;
64387;SDS011;50709;52.648;4.764;2023-04-10T00:43:54;18.65;;;11.45;;
64387;SDS011;50709;52.648;4.764;2023-04-10T00:46:21;20.85;;;12.60;;
64387;SDS011;50709;52.648;4.764;2023-04-10T00:48:52;19.85;;;11.50;;
64387;SDS011;50709;52.648;4.764;2023-04-10T00:51:18;19.70;;;12.10;;
64387;SDS011;50709;52.648;4.764;2023-04-10T00:53:46;19.17;;;10.90;;
64387;SDS011;50709;52.648;4.764;2023-04-10T00:56:12;20.98;;;11.93;;
64387;SDS011;50709;52.648;4.764;2023-04-10T00:58:38;19.65;;;11.35;;
64387;SDS011;50709;52.648;4.764;2023-04-10T01:01:03;19.98;;;12.25;;
64387;SDS011;50709;52.648;4.764;2023-04-10T01:03:29;17.52;;;11.27;;
64387;SDS011;50709;52.648;4.764;2023-04-10T01:11:32;18.17;;;11.07;;
64387;SDS011;50709;52.648;4.764;2023-04-10T01:14:22;19.52;;;10.75;;
64387;SDS011;50709;52.648;4.764;2023-04-10T01:17:03;18.02;;;10.98;;
64387;SDS011;50709;52.648;4.764;2023-04-10T01:22:19;19.05;;;11.13;;
64387;SDS011;50709;52.648;4.764;2023-04-10T01:31:04;18.15;;;11.13;;
64387;SDS011;50709;52.648;4.764;2023-04-10T01:33:37;19.20;;;11.20;;
64387;SDS011;50709;52.648;4.764;2023-04-10T01:36:09;19.77;;;11.15;;
64387;SDS011;50709;52.648;4.764;2023-04-10T01:38:37;17.60;;;10.52;;
64387;SDS011;50709;52.648;4.764;2023-04-10T01:41:07;20.40;;;11.13;;
64387;SDS011;50709;52.648;4.764;2023-04-10T01:43:33;16.50;;;10.30;;
64387;SDS011;50709;52.648;4.764;2023-04-10T01:46:00;16.90;;;10.80;;
64387;SDS011;50709;52.648;4.764;2023-04-10T01:48:27;17.52;;;10.48;;
64387;SDS011;50709;52.648;4.764;2023-04-10T01:50:53;18.83;;;12.00;;
64387;SDS011;50709;52.648;4.764;2023-04-10T01:53:19;17.58;;;10.38;;
64387;SDS011;50709;52.648;4.764;2023-04-10T01:55:46;18.17;;;10.43;;
64387;SDS011;50709;52.648;4.764;2023-04-10T01:58:12;16.27;;;9.63;;
64387;SDS011;50709;52.648;4.764;2023-04-10T02:00:39;18.40;;;10.27;;
64387;SDS011;50709;52.648;4.764;2023-04-10T02:03:08;15.90;;;9.77;;
64387;SDS011;50709;52.648;4.764;2023-04-10T02:06:08;18.23;;;10.60;;
64387;SDS011;50709;52.648;4.764;2023-04-10T02:14:25;16.50;;;10.65;;
64387;SDS011;50709;52.648;4.764;2023-04-10T02:16:53;19.60;;;10.07;;
64387;SDS011;50709;52.648;4.764;2023-04-10T02:19:21;18.60;;;10.50;;
64387;SDS011;50709;52.648;4.764;2023-04-10T02:21:49;18.85;;;10.77;;
64387;SDS011;50709;52.648;4.764;2023-04-10T02:24:16;16.17;;;9.30;;
64387;SDS011;50709;52.648;4.764;2023-04-10T02:29:15;17.20;;;10.27;;
64387;SDS011;50709;52.648;4.764;2023-04-10T02:31:41;17.58;;;10.48;;
64387;SDS011;50709;52.648;4.764;2023-04-10T02:34:07;15.65;;;9.55;;
64387;SDS011;50709;52.648;4.764;2023-04-10T02:36:39;17.35;;;9.85;;
64387;SDS011;50709;52.648;4.764;2023-04-10T02:39:05;17.77;;;9.75;;
64387;SDS011;50709;52.648;4.764;2023-04-10T02:41:50;16.60;;;9.50;;
64387;SDS011;50709;52.648;4.764;2023-04-10T02:44:18;16.52;;;9.60;;
64387;SDS011;50709;52.648;4.764;2023-04-10T02:46:43;15.00;;;9.65;;
64387;SDS011;50709;52.648;4.764;2023-04-10T02:49:30;18.23;;;10.18;;
64387;SDS011;50709;52.648;4.764;2023-04-10T02:51:55;14.65;;;8.77;;
64387;SDS011;50709;52.648;4.764;2023-04-10T02:54:21;17.50;;;9.38;;
64387;SDS011;50709;52.648;4.764;2023-04-10T02:56:46;18.08;;;9.68;;
64387;SDS011;50709;52.648;4.764;2023-04-10T02:59:12;15.57;;;9.75;;
64387;SDS011;50709;52.648;4.764;2023-04-10T03:01:37;16.55;;;10.05;;
64387;SDS011;50709;52.648;4.764;2023-04-10T03:04:04;17.80;;;9.77;;
64387;SDS011;50709;52.648;4.764;2023-04-10T03:06:50;15.02;;;9.05;;
64387;SDS011;50709;52.648;4.764;2023-04-10T03:09:16;18.58;;;9.98;;
64387;SDS011;50709;52.648;4.764;2023-04-10T03:11:43;15.52;;;8.85;;
64387;SDS011;50709;52.648;4.764;2023-04-10T03:14:08;15.80;;;9.55;;
64387;SDS011;50709;52.648;4.764;2023-04-10T03:16:34;18.45;;;10.00;;
64387;SDS011;50709;52.648;4.764;2023-04-10T03:18:59;15.18;;;9.45;;
64387;SDS011;50709;52.648;4.764;2023-04-10T03:21:25;18.50;;;10.68;;
64387;SDS011;50709;52.648;4.764;2023-04-10T03:23:51;16.33;;;10.27;;
64387;SDS011;50709;52.648;4.764;2023-04-10T03:26:16;19.77;;;10.10;;
64387;SDS011;50709;52.648;4.764;2023-04-10T03:28:45;16.75;;;10.13;;
64387;SDS011;50709;52.648;4.764;2023-04-10T03:31:10;17.75;;;10.70;;
64387;SDS011;50709;52.648;4.764;2023-04-10T03:33:36;17.48;;;10.02;;
64387;SDS011;50709;52.648;4.764;2023-04-10T03:36:02;15.98;;;10.15;;
64387;SDS011;50709;52.648;4.764;2023-04-10T03:38:28;15.45;;;9.35;;
64387;SDS011;50709;52.648;4.764;2023-04-10T03:40:53;17.08;;;10.60;;
64387;SDS011;50709;52.648;4.764;2023-04-10T03:43:19;18.08;;;10.95;;
64387;SDS011;50709;52.648;4.764;2023-04-10T03:45:44;18.58;;;10.75;;
64387;SDS011;50709;52.648;4.764;2023-04-10T03:48:11;15.80;;;10.40;;
64387;SDS011;50709;52.648;4.764;2023-04-10T03:50:36;16.88;;;10.57;;
64387;SDS011;50709;52.648;4.764;2023-04-10T03:53:02;16.40;;;10.18;;
64387;SDS011;50709;52.648;4.764;2023-04-10T03:55:27;15.80;;;10.25;;
64387;SDS011;50709;52.648;4.764;2023-04-10T03:58:13;18.52;;;11.50;;
64387;SDS011;50709;52.648;4.764;2023-04-10T04:00:38;15.45;;;10.27;;
64387;SDS011;50709;52.648;4.764;2023-04-10T04:03:04;16.58;;;9.73;;
64387;SDS011;50709;52.648;4.764;2023-04-10T04:05:30;16.77;;;10.18;;
64387;SDS011;50709;52.648;4.764;2023-04-10T04:07:56;17.73;;;10.77;;
64387;SDS011;50709;52.648;4.764;2023-04-10T04:10:21;16.27;;;10.10;;
64387;SDS011;50709;52.648;4.764;2023-04-10T04:12:47;16.83;;;10.32;;
64387;SDS011;50709;52.648;4.764;2023-04-10T04:15:13;16.98;;;11.15;;
64387;SDS011;50709;52.648;4.764;2023-04-10T04:17:40;17.60;;;10.35;;
64387;SDS011;50709;52.648;4.764;2023-04-10T04:20:08;18.52;;;10.52;;
64387;SDS011;50709;52.648;4.764;2023-04-10T04:22:34;16.88;;;10.35;;
64387;SDS011;50709;52.648;4.764;2023-04-10T04:25:01;16.33;;;10.55;;
64387;SDS011;50709;52.648;4.764;2023-04-10T04:27:27;17.25;;;10.25;;
64387;SDS011;50709;52.648;4.764;2023-04-10T04:29:53;16.08;;;9.48;;
64387;SDS011;50709;52.648;4.764;2023-04-10T04:32:18;16.05;;;9.55;;
64387;SDS011;50709;52.648;4.764;2023-04-10T04:34:44;17.48;;;9.90;;
64387;SDS011;50709;52.648;4.764;2023-04-10T04:37:12;16.60;;;10.10;;
64387;SDS011;50709;52.648;4.764;2023-04-10T04:39:37;14.52;;;9.13;;
64387;SDS011;50709;52.648;4.764;2023-04-10T04:42:03;17.70;;;10.25;;
64387;SDS011;50709;52.648;4.764;2023-04-10T04:44:28;16.58;;;9.50;;
64387;SDS011;50709;52.648;4.764;2023-04-10T04:46:53;14.52;;;9.43;;
64387;SDS011;50709;52.648;4.764;2023-04-10T04:49:19;16.42;;;8.90;;
64387;SDS011;50709;52.648;4.764;2023-04-10T04:51:44;16.13;;;8.85;;
64387;SDS011;50709;52.648;4.764;2023-04-10T04:54:10;14.77;;;9.63;;
64387;SDS011;50709;52.648;4.764;2023-04-10T04:56:35;13.98;;;8.93;;
64387;SDS011;50709;52.648;4.764;2023-04-10T04:59:00;17.30;;;9.20;;
64387;SDS011;50709;52.648;4.764;2023-04-10T05:01:29;13.75;;;9.20;;
64387;SDS011;50709;52.648;4.764;2023-04-10T05:03:54;15.00;;;9.65;;
64387;SDS011;50709;52.648;4.764;2023-04-10T05:06:20;17.85;;;10.00;;
64387;SDS011;50709;52.648;4.764;2023-04-10T05:08:46;14.82;;;8.88;;
64387;SDS011;50709;52.648;4.764;2023-04-10T05:11:11;13.82;;;8.60;;
64387;SDS011;50709;52.648;4.764;2023-04-10T05:13:37;14.93;;;8.32;;
64387;SDS011;50709;52.648;4.764;2023-04-10T05:16:02;14.82;;;8.90;;
64387;SDS011;50709;52.648;4.764;2023-04-10T05:18:28;16.60;;;9.07;;
64387;SDS011;50709;52.648;4.764;2023-04-10T05:20:54;13.93;;;8.93;;
64387;SDS011;50709;52.648;4.764;2023-04-10T05:23:20;14.50;;;9.55;;
64387;SDS011;50709;52.648;4.764;2023-04-10T05:25:46;14.85;;;8.93;;
64387;SDS011;50709;52.648;4.764;2023-04-10T05:28:13;14.68;;;9.32;;
64387;SDS011;50709;52.648;4.764;2023-04-10T05:31:01;20.90;;;15.20;;
64387;SDS011;50709;52.648;4.764;2023-04-10T05:33:46;13.50;;;8.93;;
64387;SDS011;50709;52.648;4.764;2023-04-10T05:36:12;19.60;;;13.50;;
64387;SDS011;50709;52.648;4.764;2023-04-10T05:38:37;24.10;;;15.07;;
64387;SDS011;50709;52.648;4.764;2023-04-10T05:41:02;14.25;;;8.80;;
64387;SDS011;50709;52.648;4.764;2023-04-10T05:43:28;14.25;;;9.32;;
64387;SDS011;50709;52.648;4.764;2023-04-10T05:46:13;13.10;;;8.27;;
64387;SDS011;50709;52.648;4.764;2023-04-10T05:48:39;13.80;;;9.27;;
64387;SDS011;50709;52.648;4.764;2023-04-10T05:51:04;12.93;;;9.18;;
64387;SDS011;50709;52.648;4.764;2023-04-10T05:53:30;13.18;;;8.10;;
64387;SDS011;50709;52.648;4.764;2023-04-10T05:56:15;12.57;;;8.20;;
64387;SDS011;50709;52.648;4.764;2023-04-10T05:58:42;13.63;;;8.07;;
64387;SDS011;50709;52.648;4.764;2023-04-10T06:01:07;12.82;;;8.70;;
64387;SDS011;50709;52.648;4.764;2023-04-10T06:03:32;16.63;;;10.32;;
64387;SDS011;50709;52.648;4.764;2023-04-10T06:05:59;13.20;;;9.40;;
64387;SDS011;50709;52.648;4.764;2023-04-10T06:08:26;11.98;;;8.15;;
64387;SDS011;50709;52.648;4.764;2023-04-10T06:11:12;18.55;;;11.75;;
64387;SDS011;50709;52.648;4.764;2023-04-10T06:13:37;13.18;;;7.40;;
64387;SDS011;50709;52.648;4.764;2023-04-10T06:16:03;12.90;;;8.52;;
64387;SDS011;50709;52.648;4.764;2023-04-10T06:18:29;12.32;;;8.18;;
64387;SDS011;50709;52.648;4.764;2023-04-10T06:20:54;13.80;;;8.82;;
64387;SDS011;50709;52.648;4.764;2023-04-10T06:23:22;13.55;;;8.10;;
64387;SDS011;50709;52.648;4.764;2023-04-10T06:25:47;10.85;;;7.32;;
64387;SDS011;50709;52.648;4.764;2023-04-10T06:28:13;12.55;;;8.02;;
64387;SDS011;50709;52.648;4.764;2023-04-10T06:30:58;15.20;;;9.70;;
64387;SDS011;50709;52.648;4.764;2023-04-10T06:33:27;10.88;;;7.45;;
64387;SDS011;50709;52.648;4.764;2023-04-10T06:36:12;13.23;;;8.45;;
64387;SDS011;50709;52.648;4.764;2023-04-10T06:38:38;12.20;;;8.07;;
64387;SDS011;50709;52.648;4.764;2023-04-10T06:41:04;11.68;;;7.47;;
64387;SDS011;50709;52.648;4.764;2023-04-10T06:43:34;12.82;;;8.75;;
64387;SDS011;50709;52.648;4.764;2023-04-10T06:46:04;11.05;;;7.40;;
64387;SDS011;50709;52.648;4.764;2023-04-10T06:48:32;12.40;;;7.75;;
64387;SDS011;50709;52.648;4.764;2023-04-10T06:50:58;11.90;;;7.93;;
64387;SDS011;50709;52.648;4.764;2023-04-10T06:53:27;18.05;;;10.23;;
64387;SDS011;50709;52.648;4.764;2023-04-10T06:55:55;12.07;;;8.00;;
64387;SDS011;50709;52.648;4.764;2023-04-10T06:58:20;11.75;;;7.72;;
64387;SDS011;50709;52.648;4.764;2023-04-10T07:00:46;13.10;;;8.68;;
64387;SDS011;50709;52.648;4.764;2023-04-10T07:03:11;11.40;;;7.60;;
64387;SDS011;50709;52.648;4.764;2023-04-10T07:05:36;12.70;;;8.27;;
64387;SDS011;50709;52.648;4.764;2023-04-10T07:08:02;10.68;;;7.05;;
64387;SDS011;50709;52.648;4.764;2023-04-10T07:10:27;13.05;;;8.02;;
64387;SDS011;50709;52.648;4.764;2023-04-10T07:13:13;11.65;;;7.85;;
64387;SDS011;50709;52.648;4.764;2023-04-10T07:15:38;12.32;;;7.88;;
64387;SDS011;50709;52.648;4.764;2023-04-10T07:18:04;13.18;;;8.95;;
64387;SDS011;50709;52.648;4.764;2023-04-10T07:20:30;12.90;;;8.65;;
64387;SDS011;50709;52.648;4.764;2023-04-10T07:22:56;12.93;;;9.20;;
64387;SDS011;50709;52.648;4.764;2023-04-10T07:25:21;12.55;;;8.40;;
64387;SDS011;50709;52.648;4.764;2023-04-10T07:27:47;11.90;;;7.90;;
64387;SDS011;50709;52.648;4.764;2023-04-10T07:30:14;13.43;;;8.80;;
64387;SDS011;50709;52.648;4.764;2023-04-10T07:32:39;12.85;;;9.35;;
64387;SDS011;50709;52.648;4.764;2023-04-10T07:35:06;12.30;;;7.60;;
64387;SDS011;50709;52.648;4.764;2023-04-10T07:37:32;12.45;;;7.88;;
64387;SDS011;50709;52.648;4.764;2023-04-10T07:39:57;12.63;;;8.38;;
64387;SDS011;50709;52.648;4.764;2023-04-10T07:42:24;14.23;;;9.48;;
64387;SDS011;50709;52.648;4.764;2023-04-10T07:44:49;13.45;;;8.60;;
64387;SDS011;50709;52.648;4.764;2023-04-10T07:47:15;12.02;;;8.07;;
64387;SDS011;50709;52.648;4.764;2023-04-10T07:49:40;13.65;;;9.00;;
64387;SDS011;50709;52.648;4.764;2023-04-10T07:52:06;12.50;;;8.23;;
64387;SDS011;50709;52.648;4.764;2023-04-10T07:54:31;12.70;;;8.57;;
64387;SDS011;50709;52.648;4.764;2023-04-10T07:56:59;15.27;;;10.48;;
64387;SDS011;50709;52.648;4.764;2023-04-10T07:59:26;12.02;;;8.07;;
64387;SDS011;50709;52.648;4.764;2023-04-10T08:01:51;13.60;;;9.50;;
64387;SDS011;50709;52.648;4.764;2023-04-10T08:04:17;12.77;;;7.75;;
64387;SDS011;50709;52.648;4.764;2023-04-10T08:06:43;12.93;;;8.90;;
64387;SDS011;50709;52.648;4.764;2023-04-10T08:09:08;12.20;;;7.93;;
64387;SDS011;50709;52.648;4.764;2023-04-10T08:11:35;13.93;;;8.68;;
64387;SDS011;50709;52.648;4.764;2023-04-10T08:14:01;13.20;;;8.50;;
64387;SDS011;50709;52.648;4.764;2023-04-10T08:16:31;13.32;;;8.65;;
64387;SDS011;50709;52.648;4.764;2023-04-10T08:18:59;11.38;;;8.02;;
64387;SDS011;50709;52.648;4.764;2023-04-10T08:21:25;13.07;;;9.20;;
64387;SDS011;50709;52.648;4.764;2023-04-10T08:23:52;13.43;;;8.57;;
64387;SDS011;50709;52.648;4.764;2023-04-10T08:26:20;13.60;;;8.27;;
64387;SDS011;50709;52.648;4.764;2023-04-10T08:28:47;13.00;;;8.05;;
64387;SDS011;50709;52.648;4.764;2023-04-10T08:31:14;14.07;;;7.75;;
64387;SDS011;50709;52.648;4.764;2023-04-10T08:33:39;14.18;;;8.52;;
64387;SDS011;50709;52.648;4.764;2023-04-10T08:36:05;14.35;;;9.18;;
64387;SDS011;50709;52.648;4.764;2023-04-10T08:38:32;13.73;;;8.65;;
64387;SDS011;50709;52.648;4.764;2023-04-10T08:40:57;13.40;;;8.13;;
64387;SDS011;50709;52.648;4.764;2023-04-10T08:43:23;13.30;;;9.02;;
64387;SDS011;50709;52.648;4.764;2023-04-10T08:45:51;12.50;;;8.00;;
64387;SDS011;50709;52.648;4.764;2023-04-10T08:48:17;13.77;;;8.73;;
64387;SDS011;50709;52.648;4.764;2023-04-10T08:50:44;13.00;;;9.02;;
64387;SDS011;50709;52.648;4.764;2023-04-10T08:53:11;13.05;;;9.23;;
64387;SDS011;50709;52.648;4.764;2023-04-10T08:55:41;13.57;;;9.02;;
64387;SDS011;50709;52.648;4.764;2023-04-10T08:58:08;13.38;;;7.75;;
64387;SDS011;50709;52.648;4.764;2023-04-10T09:00:35;12.45;;;8.27;;
64387;SDS011;50709;52.648;4.764;2023-04-10T09:03:06;13.95;;;9.02;;
64387;SDS011;50709;52.648;4.764;2023-04-10T09:05:53;12.75;;;8.02;;
64387;SDS011;50709;52.648;4.764;2023-04-10T09:08:20;13.02;;;8.75;;
64387;SDS011;50709;52.648;4.764;2023-04-10T09:10:45;12.32;;;7.82;;
64387;SDS011;50709;52.648;4.764;2023-04-10T09:13:10;13.18;;;8.73;;
64387;SDS011;50709;52.648;4.764;2023-04-10T09:16:18;13.55;;;8.77;;
64387;SDS011;50709;52.648;4.764;2023-04-10T09:21:14;13.77;;;9.32;;
64387;SDS011;50709;52.648;4.764;2023-04-10T09:23:41;13.25;;;8.23;;
64387;SDS011;50709;52.648;4.764;2023-04-10T09:26:23;12.10;;;7.93;;
64387;SDS011;50709;52.648;4.764;2023-04-10T09:29:02;11.35;;;7.28;;
64387;SDS011;50709;52.648;4.764;2023-04-10T09:31:30;14.10;;;8.65;;
64387;SDS011;50709;52.648;4.764;2023-04-10T09:34:16;12.02;;;8.55;;
64387;SDS011;50709;52.648;4.764;2023-04-10T09:37:04;12.48;;;8.30;;
64387;SDS011;50709;52.648;4.764;2023-04-10T09:39:34;12.57;;;8.00;;
64387;SDS011;50709;52.648;4.764;2023-04-10T09:42:07;15.05;;;10.02;;
64387;SDS011;50709;52.648;4.764;2023-04-10T09:44:34;14.23;;;8.32;;
64387;SDS011;50709;52.648;4.764;2023-04-10T09:47:14;13.48;;;8.75;;
64387;SDS011;50709;52.648;4.764;2023-04-10T09:52:20;15.30;;;9.38;;
64387;SDS011;50709;52.648;4.764;2023-04-10T09:54:50;16.52;;;9.52;;
64387;SDS011;50709;52.648;4.764;2023-04-10T09:57:17;14.27;;;9.18;;
64387;SDS011;50709;52.648;4.764;2023-04-10T09:59:48;16.05;;;8.77;;
64387;SDS011;50709;52.648;4.764;2023-04-10T10:02:18;13.82;;;8.20;;
64387;SDS011;50709;52.648;4.764;2023-04-10T10:04:45;12.95;;;8.93;;
64387;SDS011;50709;52.648;4.764;2023-04-10T10:07:21;14.07;;;8.43;;
64387;SDS011;50709;52.648;4.764;2023-04-10T10:09:48;12.38;;;8.35;;
64387;SDS011;50709;52.648;4.764;2023-04-10T10:12:16;14.57;;;9.30;;
64387;SDS011;50709;52.648;4.764;2023-04-10T10:17:27;13.30;;;8.68;;
64387;SDS011;50709;52.648;4.764;2023-04-10T10:20:01;13.45;;;8.68;;
64387;SDS011;50709;52.648;4.764;2023-04-10T10:22:30;14.05;;;9.00;;
64387;SDS011;50709;52.648;4.764;2023-04-10T10:24:56;15.85;;;9.63;;
64387;SDS011;50709;52.648;4.764;2023-04-10T10:27:25;12.57;;;9.00;;
64387;SDS011;50709;52.648;4.764;2023-04-10T10:29:53;14.77;;;9.30;;
64387;SDS011;50709;52.648;4.764;2023-04-10T10:32:21;13.35;;;8.40;;
64387;SDS011;50709;52.648;4.764;2023-04-10T10:34:49;14.68;;;9.13;;
64387;SDS011;50709;52.648;4.764;2023-04-10T10:37:16;13.93;;;8.05;;
64387;SDS011;50709;52.648;4.764;2023-04-10T10:39:52;13.98;;;8.85;;
64387;SDS011;50709;52.648;4.764;2023-04-10T10:42:45;14.90;;;9.20;;
64387;SDS011;50709;52.648;4.764;2023-04-10T10:45:39;13.30;;;8.55;;
64387;SDS011;50709;52.648;4.764;2023-04-10T10:48:11;14.63;;;9.38;;
64387;SDS011;50709;52.648;4.764;2023-04-10T10:50:49;14.05;;;8.55;;
64387;SDS011;50709;52.648;4.764;2023-04-10T10:55:55;13.60;;;8.38;;
64387;SDS011;50709;52.648;4.764;2023-04-10T10:58:21;15.25;;;9.60;;
64387;SDS011;50709;52.648;4.764;2023-04-10T11:01:17;12.95;;;7.97;;
64387;SDS011;50709;52.648;4.764;2023-04-10T11:03:43;14.90;;;8.32;;
64387;SDS011;50709;52.648;4.764;2023-04-10T11:06:11;15.10;;;9.32;;
64387;SDS011;50709;52.648;4.764;2023-04-10T11:11:24;17.45;;;10.98;;
64387;SDS011;50709;52.648;4.764;2023-04-10T11:16:17;20.23;;;12.38;;
64387;SDS011;50709;52.648;4.764;2023-04-10T11:21:15;24.48;;;13.88;;
64387;SDS011;50709;52.648;4.764;2023-04-10T11:31:58;26.90;;;14.90;;
64387;SDS011;50709;52.648;4.764;2023-04-10T11:34:24;31.00;;;16.75;;
64387;SDS011;50709;52.648;4.764;2023-04-10T11:36:51;23.77;;;13.95;;
64387;SDS011;50709;52.648;4.764;2023-04-10T11:39:18;22.17;;;14.07;;
64387;SDS011;50709;52.648;4.764;2023-04-10T11:44:13;30.48;;;13.45;;
64387;SDS011;50709;52.648;4.764;2023-04-10T11:46:42;21.27;;;13.30;;
64387;SDS011;50709;52.648;4.764;2023-04-10T11:49:11;21.70;;;13.90;;
64387;SDS011;50709;52.648;4.764;2023-04-10T11:51:43;23.38;;;14.98;;
64387;SDS011;50709;52.648;4.764;2023-04-10T11:54:15;25.73;;;14.85;;
64387;SDS011;50709;52.648;4.764;2023-04-10T11:59:30;23.17;;;13.43;;
64387;SDS011;50709;52.648;4.764;2023-04-10T12:04:33;21.38;;;12.43;;
64387;SDS011;50709;52.648;4.764;2023-04-10T12:06:59;20.50;;;13.20;;
64387;SDS011;50709;52.648;4.764;2023-04-10T12:09:25;19.63;;;12.88;;
64387;SDS011;50709;52.648;4.764;2023-04-10T12:14:21;20.55;;;12.75;;
64387;SDS011;50709;52.648;4.764;2023-04-10T12:16:48;17.58;;;11.77;;
64387;SDS011;50709;52.648;4.764;2023-04-10T12:19:15;19.45;;;11.95;;
64387;SDS011;50709;52.648;4.764;2023-04-10T12:21:42;18.85;;;11.80;;
64387;SDS011;50709;52.648;4.764;2023-04-10T12:24:09;22.33;;;12.35;;
64387;SDS011;50709;52.648;4.764;2023-04-10T12:26:35;25.15;;;14.98;;
64387;SDS011;50709;52.648;4.764;2023-04-10T12:29:00;18.02;;;11.27;;
64387;SDS011;50709;52.648;4.764;2023-04-10T12:31:26;16.85;;;10.85;;
64387;SDS011;50709;52.648;4.764;2023-04-10T12:33:53;17.75;;;11.05;;
64387;SDS011;50709;52.648;4.764;2023-04-10T12:36:25;19.88;;;11.40;;
64387;SDS011;50709;52.648;4.764;2023-04-10T12:38:54;16.83;;;11.63;;
64387;SDS011;50709;52.648;4.764;2023-04-10T12:41:21;21.88;;;12.73;;
64387;SDS011;50709;52.648;4.764;2023-04-10T12:43:48;16.02;;;10.77;;
64387;SDS011;50709;52.648;4.764;2023-04-10T12:46:22;15.70;;;10.63;;
64387;SDS011;50709;52.648;4.764;2023-04-10T12:48:49;14.52;;;10.02;;
64387;SDS011;50709;52.648;4.764;2023-04-10T12:51:15;14.20;;;10.00;;
64387;SDS011;50709;52.648;4.764;2023-04-10T12:53:43;20.00;;;10.63;;
64387;SDS011;50709;52.648;4.764;2023-04-10T12:56:09;16.50;;;11.38;;
64387;SDS011;50709;52.648;4.764;2023-04-10T12:58:36;15.07;;;9.90;;
64387;SDS011;50709;52.648;4.764;2023-04-10T13:01:03;14.63;;;10.27;;
64387;SDS011;50709;52.648;4.764;2023-04-10T13:03:30;14.95;;;10.40;;
64387;SDS011;50709;52.648;4.764;2023-04-10T13:05:58;14.45;;;9.48;;
64387;SDS011;50709;52.648;4.764;2023-04-10T13:08:23;14.00;;;10.10;;
64387;SDS011;50709;52.648;4.764;2023-04-10T13:10:50;15.48;;;11.18;;
64387;SDS011;50709;52.648;4.764;2023-04-10T13:13:16;14.20;;;9.65;;
64387;SDS011;50709;52.648;4.764;2023-04-10T13:16:01;17.05;;;10.25;;
64387;SDS011;50709;52.648;4.764;2023-04-10T13:18:27;14.30;;;10.05;;
64387;SDS011;50709;52.648;4.764;2023-04-10T13:20:52;15.45;;;11.23;;
64387;SDS011;50709;52.648;4.764;2023-04-10T13:23:18;15.20;;;10.63;;
64387;SDS011;50709;52.648;4.764;2023-04-10T13:25:43;15.05;;;10.90;;
64387;SDS011;50709;52.648;4.764;2023-04-10T13:28:08;14.48;;;9.65;;
64387;SDS011;50709;52.648;4.764;2023-04-10T13:30:35;15.63;;;9.82;;
64387;SDS011;50709;52.648;4.764;2023-04-10T13:33:02;13.73;;;9.45;;
64387;SDS011;50709;52.648;4.764;2023-04-10T13:35:28;13.85;;;9.77;;
64387;SDS011;50709;52.648;4.764;2023-04-10T13:37:53;15.10;;;9.95;;
64387;SDS011;50709;52.648;4.764;2023-04-10T13:40:19;14.10;;;9.68;;
64387;SDS011;50709;52.648;4.764;2023-04-10T13:42:45;15.25;;;9.40;;
64387;SDS011;50709;52.648;4.764;2023-04-10T13:45:11;13.70;;;9.65;;
64387;SDS011;50709;52.648;4.764;2023-04-10T13:47:37;13.13;;;9.23;;
64387;SDS011;50709;52.648;4.764;2023-04-10T13:50:02;13.07;;;8.77;;
64387;SDS011;50709;52.648;4.764;2023-04-10T13:52:28;12.23;;;9.20;;
64387;SDS011;50709;52.648;4.764;2023-04-10T13:54:53;13.35;;;9.43;;
64387;SDS011;50709;52.648;4.764;2023-04-10T13:57:19;11.95;;;9.15;;
64387;SDS011;50709;52.648;4.764;2023-04-10T13:59:44;14.00;;;9.40;;
64387;SDS011;50709;52.648;4.764;2023-04-10T14:02:10;14.05;;;10.63;;
64387;SDS011;50709;52.648;4.764;2023-04-10T14:04:35;12.20;;;8.98;;
64387;SDS011;50709;52.648;4.764;2023-04-10T14:07:01;14.60;;;10.15;;
64387;SDS011;50709;52.648;4.764;2023-04-10T14:09:26;14.68;;;10.15;;
64387;SDS011;50709;52.648;4.764;2023-04-10T14:11:52;14.82;;;9.38;;
64387;SDS011;50709;52.648;4.764;2023-04-10T14:14:18;13.60;;;9.82;;
64387;SDS011;50709;52.648;4.764;2023-04-10T14:16:44;14.73;;;9.18;;
64387;SDS011;50709;52.648;4.764;2023-04-10T14:19:10;15.45;;;8.65;;
64387;SDS011;50709;52.648;4.764;2023-04-10T14:21:35;14.60;;;9.20;;
64387;SDS011;50709;52.648;4.764;2023-04-10T14:24:01;15.02;;;9.40;;
64387;SDS011;50709;52.648;4.764;2023-04-10T14:26:26;18.27;;;11.80;;
64387;SDS011;50709;52.648;4.764;2023-04-10T14:28:52;18.85;;;13.93;;
64387;SDS011;50709;52.648;4.764;2023-04-10T14:31:17;15.60;;;10.48;;
64387;SDS011;50709;52.648;4.764;2023-04-10T14:33:43;15.05;;;10.25;;
64387;SDS011;50709;52.648;4.764;2023-04-10T14:36:09;19.23;;;12.18;;
64387;SDS011;50709;52.648;4.764;2023-04-10T14:38:35;17.48;;;11.48;;
64387;SDS011;50709;52.648;4.764;2023-04-10T14:41:05;17.10;;;11.38;;
64387;SDS011;50709;52.648;4.764;2023-04-10T14:43:31;14.93;;;11.25;;
64387;SDS011;50709;52.648;4.764;2023-04-10T14:45:56;14.35;;;11.23;;
64387;SDS011;50709;52.648;4.764;2023-04-10T14:48:22;13.93;;;9.57;;
64387;SDS011;50709;52.648;4.764;2023-04-10T14:50:47;14.40;;;9.68;;
64387;SDS011;50709;52.648;4.764;2023-04-10T14:53:14;15.50;;;11.25;;
64387;SDS011;50709;52.648;4.764;2023-04-10T14:55:40;14.95;;;9.73;;
64387;SDS011;50709;52.648;4.764;2023-04-10T14:58:05;17.05;;;11.25;;
64387;SDS011;50709;52.648;4.764;2023-04-10T15:00:32;13.68;;;8.55;;
64387;SDS011;50709;52.648;4.764;2023-04-10T15:02:58;12.07;;;8.02;;
64387;SDS011;50709;52.648;4.764;2023-04-10T15:05:24;11.82;;;8.93;;
64387;SDS011;50709;52.648;4.764;2023-04-10T15:08:10;13.43;;;8.00;;
64387;SDS011;50709;52.648;4.764;2023-04-10T15:10:37;12.00;;;7.82;;
64387;SDS011;50709;52.648;4.764;2023-04-10T15:13:02;13.32;;;9.00;;
64387;SDS011;50709;52.648;4.764;2023-04-10T15:15:29;9.35;;;6.63;;
64387;SDS011;50709;52.648;4.764;2023-04-10T15:17:55;10.30;;;6.80;;
64387;SDS011;50709;52.648;4.764;2023-04-10T15:20:20;12.98;;;7.00;;
64387;SDS011;50709;52.648;4.764;2023-04-10T15:22:46;10.85;;;7.57;;
64387;SDS011;50709;52.648;4.764;2023-04-10T15:25:13;8.70;;;6.53;;
64387;SDS011;50709;52.648;4.764;2023-04-10T15:27:39;11.10;;;7.35;;
64387;SDS011;50709;52.648;4.764;2023-04-10T15:30:05;9.35;;;5.93;;
64387;SDS011;50709;52.648;4.764;2023-04-10T15:32:30;9.27;;;5.80;;